createdAt,value
2019-02-21T00:02:11.781Z,70.08
2019-02-21T00:04:40.240Z,69.64
2019-02-21T00:07:08.725Z,69.93
2019-02-21T00:09:37.205Z,69.59
2019-02-21T00:12:05.692Z,69.57
2019-02-21T00:14:34.153Z,69.95
2019-02-21T00:17:02.629Z,70.24
2019-02-21T00:19:31.083Z,69.61
2019-02-21T00:21:59.563Z,69.81
2019-02-21T00:24:28.027Z,69.51
2019-02-21T00:26:56.512Z,69.43
2019-02-21T00:29:24.986Z,69.72
2019-02-21T00:31:53.452Z,70.33
2019-02-21T00:34:21.922Z,69.99
2019-02-21T00:36:50.406Z,70.59
2019-02-21T00:39:18.929Z,69.87
2019-02-21T00:41:47.417Z,69.88
2019-02-21T00:44:15.878Z,69.86
2019-02-21T00:46:44.368Z,70.13
2019-02-21T00:49:12.827Z,70.09
2019-02-21T00:51:41.321Z,70.04
2019-02-21T00:54:09.805Z,69.88
2019-02-21T00:56:38.273Z,69.88
2019-02-21T00:59:06.735Z,70.52
2019-02-21T01:01:35.241Z,70.02
2019-02-21T01:04:03.699Z,69.95
2019-02-21T01:06:32.207Z,69.97
2019-02-21T01:09:00.667Z,69.92
2019-02-21T01:11:29.125Z,69.88
2019-02-21T01:13:57.602Z,69.92
2019-02-21T01:16:26.060Z,70.11
2019-02-21T01:18:54.542Z,70.76
2019-02-21T01:21:23.007Z,70.30
2019-02-21T01:23:51.502Z,70.60
2019-02-21T01:26:19.971Z,70.76
2019-02-21T01:28:48.467Z,70.44
2019-02-21T01:31:16.942Z,70.58
2019-02-21T01:33:45.417Z,70.19
2019-02-21T01:36:13.884Z,70.52
2019-02-21T01:38:42.458Z,70.47
2019-02-21T01:41:10.922Z,70.64
2019-02-21T01:43:39.425Z,70.62
2019-02-21T01:46:07.887Z,70.61
2019-02-21T01:48:36.375Z,70.44
2019-02-21T01:51:04.826Z,70.25
2019-02-21T01:53:33.311Z,70.19
2019-02-21T01:56:01.759Z,70.13
2019-02-21T01:58:30.244Z,70.21
2019-02-21T02:01:07.970Z,70.25
2019-02-21T02:03:28.999Z,70.12
2019-02-21T02:05:57.456Z,70.42
2019-02-21T02:08:25.938Z,70.68
2019-02-21T02:10:54.389Z,70.53
2019-02-21T02:13:24.925Z,70.47
2019-02-21T02:15:53.061Z,71.17
2019-02-21T02:18:21.545Z,70.86
2019-02-21T02:20:50.007Z,70.73
2019-02-21T02:23:18.508Z,70.53
2019-02-21T02:25:46.963Z,70.75
2019-02-21T02:28:15.414Z,70.33
2019-02-21T02:30:43.978Z,70.50
2019-02-21T02:33:12.451Z,70.65
2019-02-21T02:35:40.937Z,71.07
2019-02-21T02:38:09.394Z,70.96
2019-02-21T02:40:37.970Z,71.18
2019-02-21T02:43:06.477Z,71.28
2019-02-21T02:45:34.966Z,71.11
2019-02-21T02:48:03.455Z,71.08
2019-02-21T02:50:33.087Z,71.51
2019-02-21T02:53:01.563Z,70.84
2019-02-21T02:55:30.068Z,70.85
2019-02-21T02:57:58.539Z,70.89
2019-02-21T03:00:27.053Z,71.05
2019-02-21T03:02:55.571Z,70.93
2019-02-21T03:05:24.062Z,70.90
2019-02-21T03:07:52.556Z,71.17
2019-02-21T03:10:21.092Z,71.23
2019-02-21T03:12:49.573Z,71.25
2019-02-21T03:15:18.084Z,71.15
2019-02-21T03:17:46.568Z,71.09
2019-02-21T03:20:15.094Z,71.06
2019-02-21T03:22:43.565Z,71.47
2019-02-21T03:25:12.117Z,71.48
2019-02-21T03:27:40.592Z,71.13
2019-02-21T03:30:12.360Z,71.13
2019-02-21T03:32:41.166Z,71.50
2019-02-21T03:35:09.701Z,71.05
2019-02-21T03:37:38.191Z,71.36
2019-02-21T03:40:09.112Z,71.33
2019-02-21T03:42:37.587Z,71.60
2019-02-21T03:45:09.496Z,71.69
2019-02-21T03:47:37.982Z,71.36
2019-02-21T03:50:11.057Z,72.19
2019-02-21T03:52:39.528Z,71.90
2019-02-21T03:55:08.862Z,72.53
2019-02-21T03:57:37.469Z,72.59
2019-02-21T04:00:11.477Z,71.67
2019-02-21T04:02:40.023Z,71.71
2019-02-21T04:05:08.950Z,71.67
2019-02-21T04:07:37.429Z,71.74
2019-02-21T04:10:07.962Z,71.62
2019-02-21T04:12:36.412Z,72.51
2019-02-21T04:15:06.934Z,72.69
2019-02-21T04:17:35.483Z,72.02
2019-02-21T04:20:05.683Z,72.77
2019-02-21T04:22:34.173Z,73.69
2019-02-21T04:25:02.649Z,72.83
2019-02-21T04:27:31.121Z,73.22
2019-02-21T04:29:59.605Z,73.24
2019-02-21T04:32:28.089Z,73.35
2019-02-21T04:34:56.598Z,73.53
2019-02-21T04:37:25.056Z,74.01
2019-02-21T04:39:53.529Z,74.58
2019-02-21T04:42:22.010Z,75.08
2019-02-21T04:44:50.475Z,74.48
2019-02-21T04:47:18.984Z,75.64
2019-02-21T04:49:47.488Z,74.85
2019-02-21T04:52:15.975Z,75.21
2019-02-21T04:54:44.449Z,75.00
2019-02-21T04:57:12.930Z,75.67
2019-02-21T04:59:41.417Z,75.96
2019-02-21T05:02:09.896Z,75.47
2019-02-21T05:04:38.377Z,75.50
2019-02-21T05:07:06.869Z,75.43
2019-02-21T05:09:35.316Z,75.20
2019-02-21T05:12:03.820Z,75.59
2019-02-21T05:14:32.277Z,75.92
2019-02-21T05:17:00.829Z,76.36
2019-02-21T05:19:29.268Z,76.98
2019-02-21T05:21:57.755Z,75.86
2019-02-21T05:24:26.235Z,77.06
2019-02-21T05:26:56.353Z,76.24
2019-02-21T05:29:24.837Z,75.94
2019-02-21T05:32:00.962Z,75.78
2019-02-21T05:34:36.845Z,76.62
2019-02-21T05:37:16.114Z,77.94
2019-02-21T05:39:52.140Z,77.76
2019-02-21T05:42:22.284Z,77.55
2019-02-21T05:45:10.911Z,77.73
2019-02-21T05:47:43.262Z,76.47
2019-02-21T05:50:19.193Z,76.81
2019-02-21T05:53:01.623Z,79.25
2019-02-21T05:55:31.751Z,77.74
2019-02-21T05:58:01.902Z,78.71
2019-02-21T06:00:37.796Z,78.92
2019-02-21T06:03:07.943Z,77.53
2019-02-21T06:05:54.037Z,78.82
2019-02-21T06:08:40.294Z,78.04
2019-02-21T06:11:10.689Z,78.28
2019-02-21T06:13:46.443Z,77.52
2019-02-21T06:16:34.831Z,77.47
2019-02-21T06:19:07.505Z,79.22
2019-02-21T06:21:37.619Z,77.62
2019-02-21T06:24:19.798Z,78.96
2019-02-21T06:26:52.371Z,78.49
2019-02-21T06:29:22.791Z,78.63
2019-02-21T06:31:51.378Z,78.83
2019-02-21T06:34:19.885Z,79.40
2019-02-21T06:36:48.410Z,80.25
2019-02-21T06:39:16.861Z,79.25
2019-02-21T06:41:45.333Z,80.11
2019-02-21T06:44:13.830Z,79.78
2019-02-21T06:46:42.296Z,79.31
2019-02-21T06:49:10.795Z,78.72
2019-02-21T06:51:39.274Z,78.86
2019-02-21T06:54:07.757Z,78.78
2019-02-21T06:56:36.234Z,78.22
2019-02-21T06:59:04.728Z,78.63
2019-02-21T07:01:33.197Z,78.41
2019-02-21T07:04:02.015Z,78.08
2019-02-21T07:06:32.177Z,77.87
2019-02-21T07:09:00.944Z,78.63
2019-02-21T07:11:29.450Z,77.86
2019-02-21T07:13:57.924Z,78.27
2019-02-21T07:16:26.436Z,78.05
2019-02-21T07:18:54.867Z,77.69
2019-02-21T07:21:23.340Z,77.74
2019-02-21T07:23:51.858Z,77.29
2019-02-21T07:26:20.338Z,77.16
2019-02-21T07:28:48.818Z,76.89
2019-02-21T07:31:28.166Z,76.85
2019-02-21T07:33:48.392Z,76.80
2019-02-21T07:36:17.001Z,76.52
2019-02-21T07:38:45.454Z,76.85
2019-02-21T07:41:14.109Z,77.17
2019-02-21T07:43:42.606Z,76.80
2019-02-21T07:46:11.094Z,76.64
2019-02-21T07:48:39.645Z,76.32
2019-02-21T07:51:08.166Z,76.10
2019-02-21T07:53:36.654Z,76.39
2019-02-21T07:56:05.241Z,76.63
2019-02-21T07:58:33.708Z,76.19
2019-02-21T08:01:02.221Z,75.95
2019-02-21T08:03:43.446Z,75.88
2019-02-21T08:06:00.896Z,75.65
2019-02-21T08:08:32.256Z,76.23
2019-02-21T08:10:59.653Z,76.29
2019-02-21T08:13:28.116Z,76.75
2019-02-21T08:15:56.596Z,77.17
2019-02-21T08:18:25.081Z,77.18
2019-02-21T08:20:53.586Z,77.50
2019-02-21T08:23:22.040Z,77.59
2019-02-21T08:25:50.527Z,77.91
2019-02-21T08:28:19.006Z,78.86
2019-02-21T08:30:47.506Z,79.58
2019-02-21T08:33:17.626Z,80.40
2019-02-21T08:35:46.113Z,80.96
2019-02-21T08:38:14.613Z,80.62
2019-02-21T08:40:43.057Z,81.20
2019-02-21T08:43:11.581Z,80.76
2019-02-21T08:45:40.041Z,81.12
2019-02-21T08:48:08.527Z,80.86
2019-02-21T08:50:37.075Z,81.81
2019-02-21T08:53:05.586Z,82.77
2019-02-21T08:55:34.042Z,81.31
2019-02-21T08:58:02.523Z,81.60
2019-02-21T09:00:31.687Z,82.27
2019-02-21T09:03:00.543Z,82.15
2019-02-21T09:05:29.016Z,82.05
2019-02-21T09:07:57.647Z,83.12
2019-02-21T09:10:27.703Z,83.07
2019-02-21T09:12:56.440Z,82.72
2019-02-21T09:15:24.922Z,82.26
2019-02-21T09:17:54.335Z,82.98
2019-02-21T09:20:23.077Z,82.07
2019-02-21T09:22:51.591Z,82.69
2019-02-21T09:25:20.054Z,83.23
2019-02-21T09:27:48.558Z,83.38
2019-02-21T09:30:18.694Z,83.91
2019-02-21T09:32:47.232Z,82.99
2019-02-21T09:35:15.711Z,83.61
2019-02-21T09:37:44.208Z,84.43
2019-02-21T09:40:14.460Z,83.49
2019-02-21T09:42:42.911Z,83.88
2019-02-21T09:45:17.115Z,83.22
2019-02-21T09:47:45.615Z,83.63
2019-02-21T09:50:14.461Z,82.44
2019-02-21T09:52:43.014Z,83.63
2019-02-21T09:55:14.115Z,83.62
2019-02-21T09:57:42.617Z,83.30
2019-02-21T10:00:13.918Z,83.01
2019-02-21T10:02:42.419Z,83.04
2019-02-21T10:05:10.906Z,82.55
2019-02-21T10:07:39.397Z,82.60
2019-02-21T10:10:13.341Z,82.36
2019-02-21T10:12:41.829Z,82.09
2019-02-21T10:15:12.745Z,81.72
2019-02-21T10:17:41.329Z,81.52
2019-02-21T10:20:17.664Z,81.77
2019-02-21T10:22:46.168Z,81.59
2019-02-21T10:25:17.236Z,80.98
2019-02-21T10:27:45.786Z,80.22
2019-02-21T10:30:16.894Z,78.55
2019-02-21T10:32:45.386Z,77.50
2019-02-21T10:35:13.927Z,78.12
2019-02-21T10:37:42.426Z,78.63
2019-02-21T10:40:13.036Z,78.02
2019-02-21T10:42:41.619Z,78.19
2019-02-21T10:45:12.730Z,77.10
2019-02-21T10:47:41.254Z,76.11
2019-02-21T10:50:15.638Z,76.21
2019-02-21T10:52:44.148Z,71.21
2019-02-21T10:55:12.698Z,73.85
2019-02-21T10:57:41.335Z,74.51
2019-02-21T11:00:27.478Z,73.88
2019-02-21T11:02:56.067Z,71.56
2019-02-21T11:05:24.548Z,71.79
2019-02-21T11:07:53.124Z,69.83
2019-02-21T11:10:24.009Z,72.02
2019-02-21T11:12:52.524Z,71.09
2019-02-21T11:15:25.511Z,71.59
2019-02-21T11:17:54.353Z,70.07
2019-02-21T11:20:23.085Z,70.00
2019-02-21T11:22:51.589Z,69.28
2019-02-21T11:25:20.069Z,69.34
2019-02-21T11:27:48.638Z,71.27
2019-02-21T11:30:19.331Z,70.12
2019-02-21T11:32:47.823Z,70.29
2019-02-21T11:35:16.394Z,69.93
2019-02-21T11:37:47.078Z,66.66
2019-02-21T11:40:18.745Z,69.35
2019-02-21T11:42:47.226Z,67.33
2019-02-21T11:45:18.149Z,68.65
2019-02-21T11:47:46.752Z,67.53
2019-02-21T11:50:19.016Z,68.52
2019-02-21T11:52:47.486Z,66.24
2019-02-21T11:55:18.579Z,68.04
2019-02-21T11:57:47.226Z,66.09
2019-02-21T12:00:21.150Z,67.60
2019-02-21T12:02:49.769Z,66.58
2019-02-21T12:05:30.241Z,65.44
2019-02-21T12:07:48.470Z,67.15
2019-02-21T12:10:17.041Z,68.19
2019-02-21T12:12:45.522Z,68.62
2019-02-21T12:15:15.451Z,68.41
2019-02-21T12:17:44.001Z,68.34
2019-02-21T12:20:14.959Z,68.31
2019-02-21T12:22:43.443Z,68.48
2019-02-21T12:25:14.488Z,68.00
2019-02-21T12:27:42.967Z,68.41
2019-02-21T12:30:14.022Z,68.28
2019-02-21T12:32:42.570Z,68.37
2019-02-21T12:35:11.297Z,68.81
2019-02-21T12:37:39.770Z,68.62
2019-02-21T12:40:19.184Z,66.96
2019-02-21T12:42:47.682Z,67.37
2019-02-21T12:45:18.211Z,68.09
2019-02-21T12:47:52.960Z,68.38
2019-02-21T12:50:16.932Z,68.18
2019-02-21T12:52:45.407Z,67.96
2019-02-21T12:55:26.568Z,68.08
2019-02-21T12:57:44.873Z,68.42
2019-02-21T13:00:15.709Z,68.46
2019-02-21T13:02:44.183Z,68.60
2019-02-21T13:05:12.671Z,68.30
2019-02-21T13:07:41.130Z,68.47
2019-02-21T13:10:21.881Z,68.67
2019-02-21T13:12:50.351Z,68.66
2019-02-21T13:15:18.842Z,68.63
2019-02-21T13:17:47.333Z,68.51
2019-02-21T13:20:15.980Z,68.17
2019-02-21T13:22:44.630Z,68.09
2019-02-21T13:25:15.167Z,67.57
2019-02-21T13:27:43.648Z,67.51
2019-02-21T13:30:14.588Z,67.65
2019-02-21T13:32:43.063Z,67.49
2019-02-21T13:35:11.987Z,67.32
2019-02-21T13:37:40.461Z,67.47
2019-02-21T13:40:21.036Z,66.91
2019-02-21T13:42:48.464Z,66.66
2019-02-21T13:45:18.157Z,66.93
2019-02-21T13:47:46.735Z,66.96
2019-02-21T13:50:19.574Z,67.45
2019-02-21T13:52:48.101Z,67.03
2019-02-21T13:55:16.603Z,67.43
2019-02-21T13:57:45.085Z,67.46
2019-02-21T14:00:23.950Z,67.49
2019-02-21T14:02:52.439Z,67.41
2019-02-21T14:05:20.927Z,67.56
2019-02-21T14:07:49.440Z,67.77
2019-02-21T14:10:18.118Z,67.50
2019-02-21T14:12:46.591Z,67.53
2019-02-21T14:15:25.764Z,67.65
2019-02-21T14:17:54.213Z,67.79
2019-02-21T14:20:22.719Z,68.47
2019-02-21T14:22:51.180Z,68.38
2019-02-21T14:25:19.714Z,69.08
2019-02-21T14:27:48.187Z,69.43
2019-02-21T14:30:21.144Z,71.74
2019-02-21T14:32:49.583Z,71.20
2019-02-21T14:35:18.123Z,71.56
2019-02-21T14:37:46.610Z,71.91
2019-02-21T14:40:16.341Z,72.23
2019-02-21T14:42:44.810Z,72.46
2019-02-21T14:45:21.330Z,74.31
2019-02-21T14:47:49.820Z,74.29
2019-02-21T14:50:18.305Z,75.65
2019-02-21T14:52:46.806Z,75.72
2019-02-21T14:55:17.446Z,74.64
2019-02-21T14:57:45.982Z,73.90
2019-02-21T15:00:25.926Z,75.23
2019-02-21T15:02:54.473Z,74.67
2019-02-21T15:05:22.967Z,74.57
2019-02-21T15:07:51.451Z,74.96
2019-02-21T15:10:20.001Z,76.13
2019-02-21T15:12:48.487Z,74.77
2019-02-21T15:15:21.916Z,75.37
2019-02-21T15:17:49.703Z,75.28
2019-02-21T15:20:18.407Z,75.86
2019-02-21T15:22:46.919Z,76.20
2019-02-21T15:25:15.463Z,74.64
2019-02-21T15:27:44.193Z,74.63
2019-02-21T15:30:25.983Z,75.18
2019-02-21T15:32:54.486Z,75.39
2019-02-21T15:35:22.950Z,74.99
2019-02-21T15:37:51.455Z,74.75
2019-02-21T15:40:19.939Z,76.20
2019-02-21T15:42:48.453Z,75.04
2019-02-21T15:45:27.721Z,75.06
2019-02-21T15:47:56.226Z,75.79
2019-02-21T15:50:24.696Z,74.98
2019-02-21T15:52:55.704Z,75.15
2019-02-21T15:55:24.158Z,75.96
2019-02-21T15:58:03.246Z,76.17
2019-02-21T16:00:24.381Z,77.15
2019-02-21T16:02:52.863Z,76.59
2019-02-21T16:05:21.368Z,77.27
2019-02-21T16:07:49.856Z,76.21
2019-02-21T16:10:28.068Z,77.29
2019-02-21T16:12:57.130Z,76.14
2019-02-21T16:15:25.928Z,76.48
2019-02-21T16:17:54.439Z,76.06
2019-02-21T16:20:23.014Z,76.98
2019-02-21T16:22:51.505Z,76.73
2019-02-21T16:25:24.765Z,76.59
2019-02-21T16:27:55.313Z,76.74
2019-02-21T16:30:23.574Z,77.35
2019-02-21T16:32:52.068Z,77.40
2019-02-21T16:35:20.530Z,76.64
2019-02-21T16:37:49.033Z,77.82
2019-02-21T16:40:19.050Z,77.62
2019-02-21T16:42:47.555Z,76.83
2019-02-21T16:45:17.767Z,77.71
2019-02-21T16:47:46.320Z,76.39
2019-02-21T16:50:15.379Z,77.47
2019-02-21T16:52:44.198Z,77.37
2019-02-21T16:55:23.944Z,76.96
2019-02-21T16:57:52.416Z,77.25
2019-02-21T17:00:22.893Z,78.30
2019-02-21T17:02:51.424Z,78.12
2019-02-21T17:05:20.067Z,77.19
2019-02-21T17:07:48.556Z,77.49
2019-02-21T17:10:17.672Z,77.82
2019-02-21T17:12:46.176Z,77.65
2019-02-21T17:15:16.817Z,77.66
2019-02-21T17:17:45.343Z,77.52
2019-02-21T17:20:19.231Z,77.42
2019-02-21T17:22:47.733Z,77.39
2019-02-21T17:25:16.583Z,78.47
2019-02-21T17:27:46.123Z,78.17
2019-02-21T17:30:16.366Z,78.80
2019-02-21T17:32:44.967Z,77.96
2019-02-21T17:35:13.882Z,77.54
2019-02-21T17:37:42.365Z,78.79
2019-02-21T17:40:19.580Z,77.72
2019-02-21T17:42:48.070Z,78.68
2019-02-21T17:45:16.711Z,78.50
2019-02-21T17:47:45.201Z,77.77
2019-02-21T17:50:20.283Z,78.52
2019-02-21T17:52:50.350Z,78.22
2019-02-21T17:55:19.248Z,78.57
2019-02-21T17:57:47.872Z,78.93
2019-02-21T18:00:20.793Z,78.87
2019-02-21T18:02:49.301Z,79.16
2019-02-21T18:05:17.778Z,79.39
2019-02-21T18:07:46.272Z,80.60
2019-02-21T18:10:16.394Z,81.98
2019-02-21T18:12:44.917Z,82.21
2019-02-21T18:15:15.582Z,82.06
2019-02-21T18:17:44.052Z,84.35
2019-02-21T18:20:16.455Z,86.14
2019-02-21T18:22:45.474Z,85.20
2019-02-21T18:25:29.469Z,86.23
2019-02-21T18:27:57.969Z,85.98
2019-02-21T18:30:26.451Z,87.05
2019-02-21T18:32:54.920Z,86.31
2019-02-21T18:35:23.470Z,85.88
2019-02-21T18:37:52.015Z,89.09
2019-02-21T18:40:22.559Z,88.40
2019-02-21T18:42:51.044Z,89.93
2019-02-21T18:45:19.543Z,88.27
2019-02-21T18:47:48.019Z,88.50
2019-02-21T18:50:16.522Z,89.42
2019-02-21T18:52:44.990Z,91.21
2019-02-21T18:55:13.577Z,89.01
2019-02-21T18:57:42.064Z,88.44
2019-02-21T19:00:24.702Z,88.16
2019-02-21T19:02:53.161Z,89.87
2019-02-21T19:05:22.125Z,88.63
2019-02-21T19:08:00.446Z,92.71
2019-02-21T19:10:21.770Z,91.42
2019-02-21T19:12:50.264Z,91.63
2019-02-21T19:15:20.091Z,90.74
2019-02-21T19:17:48.580Z,89.78
2019-02-21T19:20:21.358Z,89.63
2019-02-21T19:22:50.178Z,91.75
2019-02-21T19:25:18.897Z,90.92
2019-02-21T19:27:47.379Z,91.62
2019-02-21T19:30:36.887Z,92.30
2019-02-21T19:33:05.478Z,91.30
2019-02-21T19:35:33.986Z,90.74
2019-02-21T19:38:10.341Z,91.28
2019-02-21T19:40:32.798Z,91.75
2019-02-21T19:43:01.366Z,92.37
2019-02-21T19:45:29.928Z,93.17
2019-02-21T19:47:58.438Z,91.84
2019-02-21T19:50:26.995Z,91.66
2019-02-21T19:52:55.476Z,92.42
2019-02-21T19:55:24.037Z,92.32
2019-02-21T19:57:52.490Z,92.64
2019-02-21T20:00:30.615Z,92.25
2019-02-21T20:02:59.097Z,93.06
2019-02-21T20:05:27.852Z,92.92
2019-02-21T20:07:56.406Z,91.89
2019-02-21T20:10:26.389Z,94.35
2019-02-21T20:12:56.505Z,93.55
2019-02-21T20:15:25.005Z,95.30
2019-02-21T20:17:53.483Z,93.79
2019-02-21T20:20:24.707Z,94.03
2019-02-21T20:22:53.267Z,95.08
2019-02-21T20:25:21.812Z,94.72
2019-02-21T20:27:50.352Z,95.44
2019-02-21T20:30:20.450Z,95.58
2019-02-21T20:32:48.926Z,95.91
2019-02-21T20:35:17.447Z,94.82
2019-02-21T20:37:45.916Z,95.43
2019-02-21T20:40:14.550Z,95.31
2019-02-21T20:42:43.150Z,95.99
2019-02-21T20:45:16.077Z,95.74
2019-02-21T20:47:44.528Z,95.51
2019-02-21T20:50:13.299Z,96.07
2019-02-21T20:52:41.861Z,95.59
2019-02-21T20:55:11.457Z,96.07
2019-02-21T20:57:39.935Z,97.00
2019-02-21T21:00:11.375Z,96.54
2019-02-21T21:02:39.842Z,96.30
2019-02-21T21:05:08.579Z,95.71
2019-02-21T21:07:37.038Z,97.04
2019-02-21T21:10:09.331Z,97.15
2019-02-21T21:12:37.817Z,97.85
2019-02-21T21:15:09.585Z,96.58
2019-02-21T21:17:38.313Z,95.82
2019-02-21T21:20:16.569Z,96.82
2019-02-21T21:22:39.733Z,97.79
2019-02-21T21:25:10.944Z,98.41
2019-02-21T21:27:39.418Z,98.01
2019-02-21T21:30:10.664Z,97.55
2019-02-21T21:32:39.146Z,97.74
2019-02-21T21:35:07.895Z,97.91
2019-02-21T21:37:36.374Z,96.94
2019-02-21T21:40:16.221Z,97.68
2019-02-21T21:42:44.765Z,97.58
2019-02-21T21:45:17.777Z,98.35
2019-02-21T21:47:46.260Z,98.70
2019-02-21T21:50:16.885Z,98.35
2019-02-21T21:52:45.399Z,98.32
2019-02-21T21:55:14.327Z,98.48
2019-02-21T21:57:42.852Z,98.78
2019-02-21T22:00:22.538Z,98.08
2019-02-21T22:02:51.277Z,98.99
2019-02-21T22:05:20.208Z,98.82
2019-02-21T22:07:49.521Z,99.07
2019-02-21T22:10:19.854Z,99.45
2019-02-21T22:12:48.334Z,98.93
2019-02-21T22:15:20.923Z,98.56
2019-02-21T22:17:49.397Z,99.12
2019-02-21T22:20:17.881Z,99.00
2019-02-21T22:22:46.359Z,100.00
2019-02-21T22:25:15.119Z,99.60
2019-02-21T22:27:43.598Z,99.09
2019-02-21T22:30:15.143Z,99.02
2019-02-21T22:32:43.660Z,99.34
2019-02-21T22:35:12.239Z,99.45
2019-02-21T22:37:40.720Z,97.87
2019-02-21T22:40:11.628Z,99.56
2019-02-21T22:42:40.122Z,99.75
2019-02-21T22:45:09.943Z,99.81
2019-02-21T22:47:38.446Z,100.00
2019-02-21T22:50:10.267Z,100.00
2019-02-21T22:52:38.760Z,100.00
2019-02-21T22:55:10.187Z,100.00
2019-02-21T22:57:38.476Z,100.00
2019-02-21T23:00:32.952Z,100.00
2019-02-21T23:03:02.081Z,100.00
2019-02-21T23:05:51.411Z,100.00
2019-02-21T23:08:28.315Z,100.00
2019-02-21T23:10:56.804Z,100.00
2019-02-21T23:13:25.308Z,100.00
2019-02-21T23:15:53.792Z,100.00
2019-02-21T23:18:22.322Z,100.00
2019-02-21T23:20:50.783Z,100.00
2019-02-21T23:23:19.284Z,100.00
2019-02-21T23:25:47.768Z,100.00
2019-02-21T23:28:16.282Z,100.00
2019-02-21T23:30:44.814Z,100.00
2019-02-21T23:33:13.337Z,100.00
2019-02-21T23:35:41.805Z,100.00
2019-02-21T23:38:10.307Z,100.00
2019-02-21T23:40:38.788Z,100.00
2019-02-21T23:43:07.305Z,100.00
2019-02-21T23:45:35.775Z,100.00
2019-02-21T23:48:04.361Z,100.00
2019-02-21T23:50:32.833Z,100.00
2019-02-21T23:53:01.337Z,100.00
2019-02-21T23:55:29.808Z,100.00
2019-02-21T23:57:58.296Z,100.00
